Time;durP1;ratioP1;P1;durP2;ratioP2;P2;SDS_P1;SDS_P2;PMS_P1;PMS_P2;Temp;Humidity;BMP_temperature;BMP_pressure;BME280_temperature;BME280_humidity;BME280_pressure;Samples;Min_cycle;Max_cycle;Signal;HPM_P1;HPM_P2
2021/12/18 00:01:00;;;;;;;;;;;7.20;1.00;;;;;;5061192;28;20399;-83
2021/12/18 00:03:25;;;;;;;;;;;7.30;1.00;;;;;;5056888;28;19924;-83
2021/12/18 00:05:51;;;;;;;;;;;7.30;1.00;;;;;;5057776;28;19928;-83
2021/12/18 00:08:16;;;;;;;;;;;7.40;1.00;;;;;;5059642;28;20308;-83
2021/12/18 00:10:44;;;;;;;;;;;7.40;1.00;;;;;;5062240;28;19955;-84
2021/12/18 00:13:10;;;;;;;;;;;7.40;1.00;;;;;;5050897;28;19913;-83
2021/12/18 00:15:35;;;;;;;;;;;7.40;1.00;;;;;;5056263;28;20004;-83
2021/12/18 00:18:01;;;;;;;;;;;7.50;1.00;;;;;;5059735;28;19916;-83
2021/12/18 00:20:27;;;;;;;;;;;7.40;1.00;;;;;;5060049;28;19924;-83
2021/12/18 00:22:53;;;;;;;;;;;7.40;1.00;;;;;;5058664;28;19951;-83
2021/12/18 00:25:19;;;;;;;;;;;7.40;1.00;;;;;;5060294;28;19917;-82
2021/12/18 00:27:45;;;;;;;;;;;7.40;1.00;;;;;;5058441;28;19916;-83
2021/12/18 00:30:10;;;;;;;;;;;7.40;1.00;;;;;;5055702;28;19921;-83
2021/12/18 00:32:36;;;;;;;;;;;7.40;1.00;;;;;;5061363;28;19936;-83
2021/12/18 00:35:02;;;;;;;;;;;7.40;1.00;;;;;;5059558;28;20288;-83
2021/12/18 00:37:27;;;;;;;;;;;7.40;1.00;;;;;;5058575;28;20501;-83
2021/12/18 00:39:58;;;;;;;;;;;7.40;1.00;;;;;;5064144;28;19909;-83
2021/12/18 00:42:38;;;;;;;;;;;7.50;1.00;;;;;;5059923;28;19925;-83
2021/12/18 00:45:04;;;;;;;;;;;7.50;1.00;;;;;;5059134;28;20289;-83
2021/12/18 00:47:30;;;;;;;;;;;7.50;1.00;;;;;;5042044;28;19967;-83
2021/12/18 00:49:55;;;;;;;;;;;7.50;1.00;;;;;;5057805;28;19917;-83
2021/12/18 00:52:21;;;;;;;;;;;7.50;1.00;;;;;;5058883;28;19931;-83
2021/12/18 00:54:46;;;;;;;;;;;7.50;1.00;;;;;;5056683;28;19920;-83
2021/12/18 00:57:12;;;;;;;;;;;7.60;1.00;;;;;;5059812;28;19921;-83
2021/12/18 00:59:37;;;;;;;;;;;7.60;1.00;;;;;;5054712;28;19913;-83
2021/12/18 01:02:03;;;;;;;;;;;7.60;1.00;;;;;;5058833;28;20361;-83
2021/12/18 01:04:29;;;;;;;;;;;7.60;1.00;;;;;;5049064;28;20455;-83
2021/12/18 01:06:54;;;;;;;;;;;7.60;1.00;;;;;;5060272;28;19937;-83
2021/12/18 01:09:28;;;;;;;;;;;7.60;1.00;;;;;;5045849;28;19959;-83
2021/12/18 01:11:53;;;;;;;;;;;7.60;1.00;;;;;;5061275;28;19996;-84
2021/12/18 01:24:47;;;;;;;;;;;7.60;1.00;;;;;;5014341;28;19913;-83
2021/12/18 01:27:12;;;;;;;;;;;7.50;1.00;;;;;;5058067;28;19944;-83
2021/12/18 01:29:38;;;;;;;;;;;7.50;1.00;;;;;;5058146;28;19913;-83
2021/12/18 01:32:03;;;;;;;;;;;7.50;1.00;;;;;;5050213;28;19999;-83
2021/12/18 01:34:29;;;;;;;;;;;7.50;1.00;;;;;;5053325;28;19917;-83
2021/12/18 01:36:54;;;;;;;;;;;7.50;1.00;;;;;;5058669;28;19920;-83
2021/12/18 01:39:20;;;;;;;;;;;7.50;1.00;;;;;;5052940;28;19917;-83
2021/12/18 01:42:08;;;;;;;;;;;7.60;1.00;;;;;;5059966;28;19943;-83
2021/12/18 01:52:56;;;;;;;;;;;7.60;1.00;;;;;;5058687;28;20414;-84
2021/12/18 01:55:27;;;;;;;;;;;7.60;1.00;;;;;;5042451;28;19917;-83
2021/12/18 01:57:52;;;;;;;;;;;7.60;1.00;;;;;;5053201;28;19966;-83
2021/12/18 02:00:19;;;;;;;;;;;7.60;1.00;;;;;;5050487;28;19917;-83
2021/12/18 02:02:45;;;;;;;;;;;7.60;1.00;;;;;;5054667;28;19917;-83
2021/12/18 02:05:10;;;;;;;;;;;7.60;1.00;;;;;;5056636;28;19913;-83
2021/12/18 02:07:36;;;;;;;;;;;7.60;1.00;;;;;;5058120;28;19913;-83
2021/12/18 02:10:06;;;;;;;;;;;7.70;1.00;;;;;;5057535;28;19919;-83
2021/12/18 02:12:58;;;;;;;;;;;7.70;1.00;;;;;;5036986;28;19919;-83
2021/12/18 02:20:53;;;;;;;;;;;7.60;1.00;;;;;;5058009;28;19935;-83
2021/12/18 02:23:18;;;;;;;;;;;7.60;1.00;;;;;;5057220;28;19916;-83
2021/12/18 02:25:45;;;;;;;;;;;7.60;1.00;;;;;;5058455;28;19908;-83
2021/12/18 02:28:17;;;;;;;;;;;7.60;1.00;;;;;;5057047;28;19913;-83
2021/12/18 02:30:42;;;;;;;;;;;7.60;1.00;;;;;;5042536;28;19999;-83
2021/12/18 02:33:08;;;;;;;;;;;7.60;1.00;;;;;;5055421;28;19955;-83
2021/12/18 02:35:38;;;;;;;;;;;7.60;1.00;;;;;;5054158;28;20057;-84
2021/12/18 02:38:12;;;;;;;;;;;7.60;1.00;;;;;;5059510;28;19913;-84
2021/12/18 02:43:15;;;;;;;;;;;7.60;1.00;;;;;;5059593;28;19920;-83
2021/12/18 02:45:41;;;;;;;;;;;7.50;1.00;;;;;;5051602;28;19916;-83
2021/12/18 02:48:06;;;;;;;;;;;7.60;1.00;;;;;;5056825;28;20427;-83
2021/12/18 02:50:32;;;;;;;;;;;7.60;1.00;;;;;;5050876;28;20635;-83
2021/12/18 02:52:57;;;;;;;;;;;7.60;1.00;;;;;;5057516;28;19909;-83
2021/12/18 02:55:23;;;;;;;;;;;7.50;1.00;;;;;;5054195;28;19916;-83
2021/12/18 02:57:48;;;;;;;;;;;7.50;1.00;;;;;;5061073;28;19920;-83
2021/12/18 03:00:14;;;;;;;;;;;7.50;1.00;;;;;;5057879;28;19914;-83
2021/12/18 03:02:42;;;;;;;;;;;7.50;1.00;;;;;;5054078;28;19943;-83
2021/12/18 03:05:11;;;;;;;;;;;7.50;1.00;;;;;;5044545;28;19914;-83
2021/12/18 03:07:37;;;;;;;;;;;7.50;1.00;;;;;;5048533;28;19908;-83
2021/12/18 03:26:01;;;;;;;;;;;7.60;1.00;;;;;;5054494;28;20356;-83
2021/12/18 03:28:28;;;;;;;;;;;7.60;1.00;;;;;;5046180;28;19956;-83
2021/12/18 03:30:55;;;;;;;;;;;7.60;1.00;;;;;;5053662;28;19917;-83
2021/12/18 03:33:21;;;;;;;;;;;7.60;1.00;;;;;;5055980;28;19924;-83
2021/12/18 03:35:46;;;;;;;;;;;7.60;1.00;;;;;;5055904;28;19912;-83
2021/12/18 03:38:12;;;;;;;;;;;7.60;1.00;;;;;;5035445;28;19920;-83
2021/12/18 03:40:37;;;;;;;;;;;7.50;1.00;;;;;;5056334;28;19913;-83
2021/12/18 03:43:03;;;;;;;;;;;7.50;1.00;;;;;;5056323;28;20361;-83
2021/12/18 03:45:29;;;;;;;;;;;7.60;1.00;;;;;;5052355;28;19955;-83
2021/12/18 03:47:54;;;;;;;;;;;7.60;1.00;;;;;;5039429;28;19955;-82
2021/12/18 03:50:20;;;;;;;;;;;7.60;1.00;;;;;;5057479;28;19934;-83
2021/12/18 03:52:46;;;;;;;;;;;7.60;1.00;;;;;;5047551;28;19920;-83
2021/12/18 03:55:12;;;;;;;;;;;7.60;1.00;;;;;;5045338;28;19913;-83
2021/12/18 03:57:38;;;;;;;;;;;7.60;1.00;;;;;;5046252;28;19928;-83
2021/12/18 04:00:04;;;;;;;;;;;7.60;1.00;;;;;;5055285;28;20323;-83
2021/12/18 04:02:30;;;;;;;;;;;7.60;1.00;;;;;;5056898;28;19963;-83
2021/12/18 04:04:55;;;;;;;;;;;7.60;1.00;;;;;;5036239;28;20277;-83
2021/12/18 04:07:21;;;;;;;;;;;7.60;1.00;;;;;;5035032;28;20019;-84
2021/12/18 04:09:49;;;;;;;;;;;7.70;1.00;;;;;;5059974;28;20365;-84
2021/12/18 04:12:15;;;;;;;;;;;7.70;1.00;;;;;;5057843;28;20003;-83
2021/12/18 04:14:40;;;;;;;;;;;7.60;1.00;;;;;;5055471;28;20422;-83
2021/12/18 04:17:06;;;;;;;;;;;7.60;1.00;;;;;;5060091;28;20017;-83
2021/12/18 04:19:32;;;;;;;;;;;7.60;1.00;;;;;;5052448;28;20384;-84
2021/12/18 04:21:57;;;;;;;;;;;7.60;1.00;;;;;;5051540;28;19912;-83
2021/12/18 04:24:23;;;;;;;;;;;7.60;1.00;;;;;;5061057;28;19913;-83
2021/12/18 04:26:48;;;;;;;;;;;7.60;1.00;;;;;;5039107;28;20059;-83
2021/12/18 04:29:14;;;;;;;;;;;7.60;1.00;;;;;;5057899;28;19988;-83
2021/12/18 04:31:39;;;;;;;;;;;7.60;1.00;;;;;;5050635;28;19944;-84
2021/12/18 04:34:05;;;;;;;;;;;7.70;1.00;;;;;;5060464;28;19909;-83
2021/12/18 04:36:31;;;;;;;;;;;7.60;1.00;;;;;;5057914;28;19920;-83
2021/12/18 04:38:57;;;;;;;;;;;7.60;1.00;;;;;;5060773;28;19909;-83
2021/12/18 04:41:34;;;;;;;;;;;7.60;1.00;;;;;;5060373;28;19923;-83
2021/12/18 04:44:00;;;;;;;;;;;7.60;1.00;;;;;;5060909;28;19917;-83
2021/12/18 04:46:25;;;;;;;;;;;7.60;1.00;;;;;;5059450;28;19931;-83
2021/12/18 04:48:51;;;;;;;;;;;7.60;1.00;;;;;;5056261;28;19913;-83
2021/12/18 04:51:16;;;;;;;;;;;7.60;1.00;;;;;;5059171;28;19909;-83
2021/12/18 04:53:42;;;;;;;;;;;7.60;1.00;;;;;;5053581;28;19912;-83
2021/12/18 04:56:07;;;;;;;;;;;7.60;1.00;;;;;;5058690;28;19909;-83
2021/12/18 04:58:33;;;;;;;;;;;7.60;1.00;;;;;;5042989;28;19912;-83
2021/12/18 05:00:58;;;;;;;;;;;7.60;1.00;;;;;;5058858;28;19919;-83
2021/12/18 05:03:24;;;;;;;;;;;7.60;1.00;;;;;;5055397;28;19923;-83
2021/12/18 05:05:49;;;;;;;;;;;7.60;1.00;;;;;;5036770;28;19920;-83
2021/12/18 05:08:15;;;;;;;;;;;7.60;1.00;;;;;;5057410;28;19915;-83
2021/12/18 05:10:40;;;;;;;;;;;7.60;1.00;;;;;;5056994;28;19919;-83
2021/12/18 05:13:06;;;;;;;;;;;7.60;1.00;;;;;;5056784;28;19913;-83
2021/12/18 05:15:31;;;;;;;;;;;7.60;1.00;;;;;;5057694;28;19913;-83
2021/12/18 05:17:57;;;;;;;;;;;7.60;1.00;;;;;;5056040;28;19912;-83
2021/12/18 05:20:22;;;;;;;;;;;7.60;1.00;;;;;;5054191;28;20308;-83
2021/12/18 05:22:47;;;;;;;;;;;7.60;1.00;;;;;;5055780;28;20517;-83
2021/12/18 05:25:13;;;;;;;;;;;7.60;1.00;;;;;;5059551;28;19920;-84
2021/12/18 05:27:38;;;;;;;;;;;7.60;1.00;;;;;;5061004;28;19912;-83
2021/12/18 05:30:06;;;;;;;;;;;7.60;1.00;;;;;;5062980;28;19913;-83
2021/12/18 05:32:31;;;;;;;;;;;7.60;1.00;;;;;;5044236;28;19931;-83
2021/12/18 05:34:57;;;;;;;;;;;7.50;1.00;;;;;;5058044;28;20381;-83
2021/12/18 05:39:51;;;;;;;;;;;7.50;1.00;;;;;;5050707;28;19913;-83
2021/12/18 05:42:17;;;;;;;;;;;7.60;1.00;;;;;;5058943;28;19944;-83
2021/12/18 05:44:42;;;;;;;;;;;7.60;1.00;;;;;;5054960;28;19913;-83
2021/12/18 05:47:08;;;;;;;;;;;7.60;1.00;;;;;;5058977;28;19909;-83
2021/12/18 05:49:33;;;;;;;;;;;7.50;1.00;;;;;;5060749;28;19913;-84
2021/12/18 05:51:59;;;;;;;;;;;7.60;1.00;;;;;;5069303;28;19916;-83
2021/12/18 05:54:25;;;;;;;;;;;7.60;1.00;;;;;;5037965;28;20328;-83
2021/12/18 05:56:50;;;;;;;;;;;7.60;1.00;;;;;;5040481;28;19913;-82
2021/12/18 05:59:16;;;;;;;;;;;7.70;1.00;;;;;;5065380;28;19920;-83
2021/12/18 06:01:42;;;;;;;;;;;7.80;1.00;;;;;;5057239;28;19912;-83
2021/12/18 06:04:07;;;;;;;;;;;7.80;1.00;;;;;;5056393;28;19913;-83
2021/12/18 06:06:33;;;;;;;;;;;7.90;1.00;;;;;;5057991;28;19913;-83
2021/12/18 06:08:58;;;;;;;;;;;7.90;1.00;;;;;;5058715;28;19920;-83
2021/12/18 06:11:27;;;;;;;;;;;7.90;1.00;;;;;;5058419;28;19916;-83
2021/12/18 06:13:52;;;;;;;;;;;7.90;1.00;;;;;;5050102;28;20039;-83
2021/12/18 06:16:19;;;;;;;;;;;8.00;1.00;;;;;;5058136;28;19958;-84
2021/12/18 06:18:45;;;;;;;;;;;7.90;1.00;;;;;;5056421;28;20497;-84
2021/12/18 06:21:14;;;;;;;;;;;7.90;1.00;;;;;;5058345;28;19909;-83
2021/12/18 06:23:43;;;;;;;;;;;7.90;1.00;;;;;;5057924;28;19944;-83
2021/12/18 06:26:09;;;;;;;;;;;7.80;1.00;;;;;;5057246;28;19976;-83
2021/12/18 06:28:35;;;;;;;;;;;7.90;1.00;;;;;;5056034;28;19955;-83
2021/12/18 06:31:01;;;;;;;;;;;7.90;1.00;;;;;;5049851;28;19913;-83
2021/12/18 06:33:27;;;;;;;;;;;7.90;1.00;;;;;;5056891;28;19928;-83
2021/12/18 06:35:52;;;;;;;;;;;7.90;1.00;;;;;;5055691;28;20393;-83
2021/12/18 06:38:18;;;;;;;;;;;7.90;1.00;;;;;;5057731;28;19920;-83
2021/12/18 06:40:43;;;;;;;;;;;7.90;1.00;;;;;;5036453;28;19913;-83
2021/12/18 06:43:09;;;;;;;;;;;7.90;1.00;;;;;;5037512;28;20381;-83
2021/12/18 06:45:36;;;;;;;;;;;7.90;1.00;;;;;;5037426;28;20154;-83
2021/12/18 06:48:02;;;;;;;;;;;7.90;1.00;;;;;;5044587;28;19944;-84
2021/12/18 06:50:27;;;;;;;;;;;7.90;1.00;;;;;;5035954;28;19921;-83
2021/12/18 06:52:53;;;;;;;;;;;7.80;1.00;;;;;;5046970;28;19927;-83
2021/12/18 06:55:19;;;;;;;;;;;7.70;1.00;;;;;;5057474;28;19912;-84
2021/12/18 06:57:44;;;;;;;;;;;7.70;1.00;;;;;;5047684;28;19936;-83
2021/12/18 07:00:11;;;;;;;;;;;7.70;1.00;;;;;;5055157;28;19964;-83
2021/12/18 07:02:37;;;;;;;;;;;7.70;1.00;;;;;;5042477;28;19916;-83
2021/12/18 07:05:03;;;;;;;;;;;7.70;1.00;;;;;;5037774;28;19928;-84
2021/12/18 07:07:28;;;;;;;;;;;7.80;1.00;;;;;;5037165;28;20025;-84
2021/12/18 07:09:54;;;;;;;;;;;7.80;1.00;;;;;;5055487;28;19913;-84
2021/12/18 07:12:19;;;;;;;;;;;8.00;1.00;;;;;;5054214;28;19917;-84
2021/12/18 07:14:45;;;;;;;;;;;8.00;1.00;;;;;;5051036;28;20581;-84
2021/12/18 07:17:10;;;;;;;;;;;8.10;1.00;;;;;;5049648;28;19956;-84
2021/12/18 07:19:36;;;;;;;;;;;8.10;1.00;;;;;;5047372;28;20304;-84
2021/12/18 07:22:01;;;;;;;;;;;8.20;1.00;;;;;;5057473;28;19909;-84
2021/12/18 07:24:27;;;;;;;;;;;8.20;1.00;;;;;;5053587;28;19913;-84
2021/12/18 07:26:52;;;;;;;;;;;8.20;1.00;;;;;;5044840;28;19913;-85
2021/12/18 07:29:19;;;;;;;;;;;8.10;1.00;;;;;;5048016;28;20301;-84
2021/12/18 07:31:44;;;;;;;;;;;8.10;1.00;;;;;;5050762;28;19999;-85
2021/12/18 07:34:10;;;;;;;;;;;8.10;1.00;;;;;;5044415;28;19970;-85
2021/12/18 07:36:35;;;;;;;;;;;8.10;1.00;;;;;;5044169;28;19983;-85
2021/12/18 07:39:01;;;;;;;;;;;8.10;1.00;;;;;;5049637;28;20335;-85
2021/12/18 07:41:27;;;;;;;;;;;8.10;1.00;;;;;;5054092;28;19924;-85
2021/12/18 07:43:52;;;;;;;;;;;8.10;1.00;;;;;;5049469;28;20293;-85
2021/12/18 07:46:18;;;;;;;;;;;8.00;1.00;;;;;;5057552;28;20019;-86
2021/12/18 07:48:45;;;;;;;;;;;8.10;1.00;;;;;;5060190;28;20351;-85
2021/12/18 07:51:11;;;;;;;;;;;8.10;1.00;;;;;;5053610;28;19919;-85
2021/12/18 07:53:36;;;;;;;;;;;8.10;1.00;;;;;;5052460;28;20308;-85
2021/12/18 07:56:03;;;;;;;;;;;8.10;1.00;;;;;;5051899;28;19919;-86
2021/12/18 07:58:29;;;;;;;;;;;8.10;1.00;;;;;;5052089;28;19918;-85
2021/12/18 08:00:54;;;;;;;;;;;8.10;1.00;;;;;;5054027;28;19929;-85
2021/12/18 08:03:20;;;;;;;;;;;8.10;1.00;;;;;;5049937;28;19952;-82
2021/12/18 08:05:45;;;;;;;;;;;8.20;1.00;;;;;;5056209;28;19913;-83
2021/12/18 08:08:11;;;;;;;;;;;8.20;1.00;;;;;;5049269;28;19920;-85
2021/12/18 08:10:36;;;;;;;;;;;8.20;1.00;;;;;;5060471;28;19913;-84
2021/12/18 08:13:02;;;;;;;;;;;8.20;1.00;;;;;;5059148;28;19913;-84
2021/12/18 08:15:27;;;;;;;;;;;8.20;1.00;;;;;;5059682;28;19917;-85
2021/12/18 08:17:53;;;;;;;;;;;8.20;1.00;;;;;;5060382;28;20323;-84
2021/12/18 08:20:19;;;;;;;;;;;8.20;1.00;;;;;;5061099;28;19917;-85
2021/12/18 08:22:45;;;;;;;;;;;8.20;1.00;;;;;;5049227;28;20381;-83
2021/12/18 08:25:10;;;;;;;;;;;8.20;1.00;;;;;;5045003;28;19920;-84
2021/12/18 08:27:36;;;;;;;;;;;8.20;1.00;;;;;;5051597;28;19913;-86
2021/12/18 08:30:01;;;;;;;;;;;8.20;1.00;;;;;;5050907;28;19917;-84
2021/12/18 08:32:27;;;;;;;;;;;8.20;1.00;;;;;;5041229;28;20007;-85
2021/12/18 08:34:52;;;;;;;;;;;8.20;1.00;;;;;;5050896;28;19952;-86
2021/12/18 08:37:19;;;;;;;;;;;8.20;1.00;;;;;;5052446;28;20054;-84
2021/12/18 08:39:44;;;;;;;;;;;8.20;1.00;;;;;;5052309;28;19913;-84
2021/12/18 08:42:10;;;;;;;;;;;8.10;1.00;;;;;;5049758;28;19923;-85
2021/12/18 08:44:35;;;;;;;;;;;8.10;1.00;;;;;;5056651;28;20458;-85
2021/12/18 08:47:01;;;;;;;;;;;8.20;1.00;;;;;;5057322;28;20353;-84
2021/12/18 08:49:27;;;;;;;;;;;8.20;1.00;;;;;;5049135;28;19921;-85
2021/12/18 08:51:53;;;;;;;;;;;8.10;1.00;;;;;;5053190;28;20368;-84
2021/12/18 08:54:19;;;;;;;;;;;8.20;1.00;;;;;;5055566;28;19948;-84
2021/12/18 08:56:44;;;;;;;;;;;8.20;1.00;;;;;;5047104;28;19979;-84
2021/12/18 08:59:10;;;;;;;;;;;8.20;1.00;;;;;;5042331;28;19999;-84
2021/12/18 09:01:35;;;;;;;;;;;8.20;1.00;;;;;;5046870;28;19914;-84
2021/12/18 09:04:00;;;;;;;;;;;8.30;1.00;;;;;;5047981;28;19976;-84
2021/12/18 09:06:26;;;;;;;;;;;8.20;1.00;;;;;;5047960;28;19920;-84
2021/12/18 09:08:52;;;;;;;;;;;8.20;1.00;;;;;;5037383;28;19919;-84
2021/12/18 09:11:18;;;;;;;;;;;8.30;1.00;;;;;;5045174;28;19912;-84
2021/12/18 09:13:43;;;;;;;;;;;8.30;1.00;;;;;;5055212;28;19913;-84
2021/12/18 09:16:08;;;;;;;;;;;8.40;1.00;;;;;;5046226;28;19968;-84
2021/12/18 09:18:34;;;;;;;;;;;8.30;1.00;;;;;;5056852;28;20273;-84
2021/12/18 09:20:59;;;;;;;;;;;8.30;1.00;;;;;;5057250;28;20357;-84
2021/12/18 09:23:25;;;;;;;;;;;8.30;1.00;;;;;;5054669;28;20384;-84
2021/12/18 09:25:50;;;;;;;;;;;8.40;1.00;;;;;;5040875;28;19913;-84
2021/12/18 09:28:16;;;;;;;;;;;8.50;1.00;;;;;;5055476;28;19959;-84
2021/12/18 09:30:42;;;;;;;;;;;8.50;1.00;;;;;;5049909;28;19913;-84
2021/12/18 09:33:09;;;;;;;;;;;8.50;1.00;;;;;;5050658;28;19940;-84
2021/12/18 09:35:34;;;;;;;;;;;8.60;1.00;;;;;;5055342;28;19920;-84
2021/12/18 09:38:00;;;;;;;;;;;8.60;1.00;;;;;;5046831;28;20304;-83
2021/12/18 09:40:25;;;;;;;;;;;8.60;1.00;;;;;;5048938;28;19913;-84
2021/12/18 09:42:51;;;;;;;;;;;8.60;1.00;;;;;;5032710;28;19917;-83
2021/12/18 09:45:17;;;;;;;;;;;8.60;1.00;;;;;;5034416;28;19912;-83
2021/12/18 09:47:44;;;;;;;;;;;8.70;1.00;;;;;;5053933;28;19912;-84
2021/12/18 09:50:09;;;;;;;;;;;8.80;1.00;;;;;;5039469;28;19919;-84
2021/12/18 09:52:35;;;;;;;;;;;8.80;1.00;;;;;;5046157;28;19913;-84
2021/12/18 09:55:01;;;;;;;;;;;8.80;1.00;;;;;;5044989;28;20281;-84
2021/12/18 09:57:26;;;;;;;;;;;8.70;1.00;;;;;;5051108;28;19913;-84
2021/12/18 09:59:52;;;;;;;;;;;8.80;1.00;;;;;;5037873;28;19916;-83
2021/12/18 10:02:17;;;;;;;;;;;8.80;1.00;;;;;;5046767;28;19932;-84
2021/12/18 10:04:43;;;;;;;;;;;8.80;1.00;;;;;;5049159;28;20371;-81
2021/12/18 10:07:15;;;;;;;;;;;8.80;1.00;;;;;;5054012;28;20408;-84
2021/12/18 10:09:41;;;;;;;;;;;8.80;1.00;;;;;;5055993;28;19909;-84
2021/12/18 10:12:17;;;;;;;;;;;8.90;1.00;;;;;;5049831;28;20431;-84
2021/12/18 10:14:53;;;;;;;;;;;8.90;1.00;;;;;;5054006;28;19909;-84
2021/12/18 10:17:18;;;;;;;;;;;9.00;1.00;;;;;;5047970;28;19924;-84
2021/12/18 10:19:44;;;;;;;;;;;9.00;1.00;;;;;;5049529;28;19917;-83
2021/12/18 10:22:10;;;;;;;;;;;9.00;1.00;;;;;;5055999;28;19913;-83
2021/12/18 10:24:38;;;;;;;;;;;9.00;1.00;;;;;;5048717;28;19909;-85
2021/12/18 10:27:20;;;;;;;;;;;9.00;1.00;;;;;;5054552;28;20007;-84
2021/12/18 10:29:46;;;;;;;;;;;9.00;1.00;;;;;;5048836;28;19913;-84
2021/12/18 10:32:16;;;;;;;;;;;9.00;1.00;;;;;;5051242;28;19912;-84
2021/12/18 10:34:49;;;;;;;;;;;9.10;1.00;;;;;;5051818;28;20416;-85
2021/12/18 10:37:20;;;;;;;;;;;9.10;1.00;;;;;;5042194;28;19916;-85
2021/12/18 10:39:53;;;;;;;;;;;9.10;1.00;;;;;;5053953;28;19913;-84
2021/12/18 10:42:35;;;;;;;;;;;9.10;1.00;;;;;;5037665;28;19990;-85
2021/12/18 10:45:07;;;;;;;;;;;9.20;1.00;;;;;;5054297;28;19916;-84
2021/12/18 10:47:51;;;;;;;;;;;9.20;1.00;;;;;;5032805;28;19966;-83
2021/12/18 10:50:25;;;;;;;;;;;9.10;1.00;;;;;;5035821;28;20419;-84
2021/12/18 10:52:58;;;;;;;;;;;9.00;1.00;;;;;;5042929;28;20008;-84
2021/12/18 10:55:32;;;;;;;;;;;9.00;1.00;;;;;;5054507;28;20242;-84
2021/12/18 10:57:58;;;;;;;;;;;9.10;1.00;;;;;;5049541;28;19913;-86
2021/12/18 11:00:35;;;;;;;;;;;9.10;1.00;;;;;;5059723;28;20033;-84
2021/12/18 11:03:14;;;;;;;;;;;9.10;1.00;;;;;;5034340;28;20316;-84
2021/12/18 11:05:39;;;;;;;;;;;9.10;1.00;;;;;;5059609;28;19913;-84
2021/12/18 11:08:11;;;;;;;;;;;9.20;1.00;;;;;;5049003;28;19925;-85
2021/12/18 11:10:54;;;;;;;;;;;9.10;99.90;;;;;;5058788;28;20369;-84
2021/12/18 11:13:38;;;;;;;;;;;9.10;1.00;;;;;;5059193;28;20440;-84
2021/12/18 11:16:04;;;;;;;;;;;9.10;99.90;;;;;;5040650;28;19920;-84
2021/12/18 11:18:30;;;;;;;;;;;9.10;1.00;;;;;;5060955;28;19913;-84
2021/12/18 11:20:56;;;;;;;;;;;9.20;99.90;;;;;;5057531;28;20369;-84
2021/12/18 11:23:26;;;;;;;;;;;9.20;99.90;;;;;;5063889;28;19920;-84
2021/12/18 11:25:52;;;;;;;;;;;9.20;99.90;;;;;;5059801;28;20323;-84
2021/12/18 11:28:18;;;;;;;;;;;9.10;99.90;;;;;;5051602;28;19913;-84
2021/12/18 11:30:43;;;;;;;;;;;9.00;99.90;;;;;;5047541;28;19914;-83
2021/12/18 11:33:09;;;;;;;;;;;9.00;1.00;;;;;;5053844;28;19924;-83
2021/12/18 11:35:36;;;;;;;;;;;9.10;1.00;;;;;;5057076;28;19917;-83
2021/12/18 11:38:04;;;;;;;;;;;9.10;1.00;;;;;;5060135;28;19913;-84
2021/12/18 11:40:32;;;;;;;;;;;9.10;99.90;;;;;;5057465;28;19913;-84
2021/12/18 11:42:57;;;;;;;;;;;9.20;1.00;;;;;;5057002;28;19948;-84
2021/12/18 11:45:30;;;;;;;;;;;9.20;99.90;;;;;;5053879;28;19913;-86
2021/12/18 11:47:56;;;;;;;;;;;9.20;99.90;;;;;;5028815;28;19947;-85
2021/12/18 11:50:31;;;;;;;;;;;9.20;99.90;;;;;;5048682;28;19952;-85
2021/12/18 11:53:13;;;;;;;;;;;9.30;99.90;;;;;;5050928;28;19913;-85
2021/12/18 11:55:51;;;;;;;;;;;9.30;99.90;;;;;;5029748;28;20388;-85
2021/12/18 11:58:18;;;;;;;;;;;9.40;99.90;;;;;;5052734;28;19912;-85
2021/12/18 12:00:46;;;;;;;;;;;9.40;99.90;;;;;;5054235;28;19986;-86
2021/12/18 12:03:14;;;;;;;;;;;9.50;99.90;;;;;;5055650;28;19917;-85
2021/12/18 12:05:39;;;;;;;;;;;9.50;99.90;;;;;;5044817;28;19920;-85
2021/12/18 12:08:26;;;;;;;;;;;9.50;99.90;;;;;;5047977;28;19913;-85
2021/12/18 12:11:16;;;;;;;;;;;9.50;99.90;;;;;;5047329;28;20699;-85
2021/12/18 12:14:00;;;;;;;;;;;9.40;99.90;;;;;;5046834;28;19913;-85
2021/12/18 12:16:57;;;;;;;;;;;9.40;99.90;;;;;;5055713;28;20393;-85
2021/12/18 12:19:37;;;;;;;;;;;9.30;99.90;;;;;;5046593;28;19936;-86
2021/12/18 12:22:04;;;;;;;;;;;9.30;99.90;;;;;;5045693;28;19963;-85
2021/12/18 12:24:31;;;;;;;;;;;9.30;99.90;;;;;;5054096;28;19913;-85
2021/12/18 12:27:15;;;;;;;;;;;9.30;99.90;;;;;;5056599;28;20000;-85
2021/12/18 12:29:45;;;;;;;;;;;9.30;99.90;;;;;;5058379;28;19983;-85
2021/12/18 12:32:12;;;;;;;;;;;9.30;99.90;;;;;;5055792;28;19912;-85
2021/12/18 12:34:38;;;;;;;;;;;9.40;99.90;;;;;;5056928;28;19960;-86
2021/12/18 12:37:30;;;;;;;;;;;9.40;99.90;;;;;;5052917;28;20533;-85
2021/12/18 12:39:56;;;;;;;;;;;9.40;99.90;;;;;;5042997;28;19913;-85
2021/12/18 12:42:22;;;;;;;;;;;9.40;99.90;;;;;;5050663;28;19928;-85
2021/12/18 12:44:55;;;;;;;;;;;9.40;99.90;;;;;;5034025;28;19924;-86
2021/12/18 12:47:27;;;;;;;;;;;9.50;99.90;;;;;;5048462;28;19920;-86
2021/12/18 12:49:54;;;;;;;;;;;9.50;99.90;;;;;;5055531;28;19991;-85
2021/12/18 12:52:20;;;;;;;;;;;9.60;99.90;;;;;;5045590;28;19920;-85
2021/12/18 12:54:49;;;;;;;;;;;9.60;99.90;;;;;;5052171;28;19924;-84
2021/12/18 12:57:24;;;;;;;;;;;9.60;99.90;;;;;;5056296;28;19913;-85
2021/12/18 12:59:50;;;;;;;;;;;9.60;99.90;;;;;;5055163;28;19913;-86
2021/12/18 13:02:16;;;;;;;;;;;9.60;99.90;;;;;;5055177;28;20400;-85
2021/12/18 13:04:41;;;;;;;;;;;9.60;99.90;;;;;;5049332;28;19913;-82
2021/12/18 13:07:07;;;;;;;;;;;9.60;99.90;;;;;;5052688;28;19921;-83
2021/12/18 13:09:33;;;;;;;;;;;9.50;99.90;;;;;;5046297;28;20417;-83
2021/12/18 13:12:04;;;;;;;;;;;9.50;99.90;;;;;;5051785;28;19921;-83
2021/12/18 13:14:37;;;;;;;;;;;9.50;99.90;;;;;;5046136;28;19936;-84
2021/12/18 13:17:15;;;;;;;;;;;9.50;99.90;;;;;;5058762;28;20322;-83
2021/12/18 13:19:51;;;;;;;;;;;9.50;99.90;;;;;;5056156;28;20284;-83
2021/12/18 13:22:16;;;;;;;;;;;9.50;99.90;;;;;;5036016;28;20246;-84
2021/12/18 13:24:42;;;;;;;;;;;9.40;99.90;;;;;;5041540;28;19913;-84
2021/12/18 13:27:10;;;;;;;;;;;9.40;99.90;;;;;;5030755;28;20413;-85
2021/12/18 13:29:36;;;;;;;;;;;9.30;99.90;;;;;;5053726;28;20272;-84
2021/12/18 13:32:02;;;;;;;;;;;9.20;99.90;;;;;;5049007;28;19913;-86
2021/12/18 13:34:31;;;;;;;;;;;9.20;1.00;;;;;;5057874;28;19948;-84
2021/12/18 13:37:02;;;;;;;;;;;9.30;1.00;;;;;;5050898;28;19941;-84
2021/12/18 13:39:32;;;;;;;;;;;9.30;1.00;;;;;;5052553;28;19917;-86
2021/12/18 13:42:00;;;;;;;;;;;9.40;99.90;;;;;;5058857;28;19921;-85
2021/12/18 13:44:37;;;;;;;;;;;9.40;99.90;;;;;;5054350;28;19917;-86
2021/12/18 13:47:18;;;;;;;;;;;9.40;99.90;;;;;;5050450;28;19913;-85
2021/12/18 13:49:44;;;;;;;;;;;9.40;99.90;;;;;;5056424;28;19913;-84
2021/12/18 13:52:10;;;;;;;;;;;9.40;99.90;;;;;;5051646;28;19940;-88
2021/12/18 13:54:35;;;;;;;;;;;9.40;99.90;;;;;;5054588;28;19924;-85
2021/12/18 13:57:01;;;;;;;;;;;9.40;99.90;;;;;;5042587;28;19913;-86
2021/12/18 13:59:26;;;;;;;;;;;9.40;99.90;;;;;;5059769;28;19909;-84
2021/12/18 14:01:52;;;;;;;;;;;9.30;99.90;;;;;;5036831;28;20381;-85
2021/12/18 14:04:19;;;;;;;;;;;9.30;99.90;;;;;;5042881;28;19970;-85
2021/12/18 14:06:46;;;;;;;;;;;9.30;99.90;;;;;;5050136;28;19913;-85
2021/12/18 14:09:20;;;;;;;;;;;9.30;99.90;;;;;;5051237;28;19920;-84
2021/12/18 14:11:55;;;;;;;;;;;9.30;99.90;;;;;;5053122;28;19919;-84
2021/12/18 14:14:31;;;;;;;;;;;9.30;1.00;;;;;;5054393;28;20012;-85
2021/12/18 14:16:57;;;;;;;;;;;9.20;1.00;;;;;;5052967;28;20621;-85
2021/12/18 14:19:27;;;;;;;;;;;9.20;1.00;;;;;;5053156;28;19916;-85
2021/12/18 14:21:53;;;;;;;;;;;9.20;1.00;;;;;;5051544;28;19913;-85
2021/12/18 14:24:19;;;;;;;;;;;9.20;1.00;;;;;;5054591;28;19950;-85
2021/12/18 14:26:58;;;;;;;;;;;9.10;1.00;;;;;;5053970;28;19917;-85
2021/12/18 14:29:24;;;;;;;;;;;9.00;1.00;;;;;;5044615;28;19971;-84
2021/12/18 14:31:50;;;;;;;;;;;8.90;1.00;;;;;;5054594;28;20024;-85
2021/12/18 14:34:26;;;;;;;;;;;8.90;1.00;;;;;;5055573;28;19927;-84
2021/12/18 14:36:55;;;;;;;;;;;8.90;1.00;;;;;;5038016;28;19978;-84
2021/12/18 14:39:20;;;;;;;;;;;8.90;1.00;;;;;;5046040;28;19913;-85
2021/12/18 14:41:56;;;;;;;;;;;9.00;1.00;;;;;;5052375;28;19924;-84
2021/12/18 14:44:21;;;;;;;;;;;9.00;1.00;;;;;;5049820;28;19921;-84
2021/12/18 14:46:47;;;;;;;;;;;9.00;1.00;;;;;;5053725;28;19939;-83
2021/12/18 14:49:13;;;;;;;;;;;9.00;1.00;;;;;;5049487;28;19953;-83
2021/12/18 14:51:39;;;;;;;;;;;9.10;1.00;;;;;;5050317;28;20397;-84
2021/12/18 14:54:05;;;;;;;;;;;9.10;1.00;;;;;;5050148;28;19913;-84
2021/12/18 14:56:30;;;;;;;;;;;9.10;1.00;;;;;;5052128;28;19932;-84
2021/12/18 14:58:56;;;;;;;;;;;9.10;1.00;;;;;;5052972;28;19920;-85
2021/12/18 15:01:23;;;;;;;;;;;9.20;1.00;;;;;;5052841;28;19917;-85
2021/12/18 15:03:56;;;;;;;;;;;9.20;1.00;;;;;;5057101;28;19925;-85
2021/12/18 15:06:32;;;;;;;;;;;9.20;1.00;;;;;;5045050;28;19916;-85
2021/12/18 15:09:03;;;;;;;;;;;9.20;1.00;;;;;;5054503;28;19921;-84
2021/12/18 15:11:35;;;;;;;;;;;9.20;1.00;;;;;;5045550;28;19920;-84
2021/12/18 15:14:00;;;;;;;;;;;9.20;1.00;;;;;;5053429;28;19913;-84
2021/12/18 15:16:30;;;;;;;;;;;9.20;1.00;;;;;;5059179;28;19916;-83
2021/12/18 15:18:58;;;;;;;;;;;9.20;1.00;;;;;;5053534;28;19916;-83
2021/12/18 15:21:24;;;;;;;;;;;9.20;1.00;;;;;;5038010;28;19920;-85
2021/12/18 15:23:50;;;;;;;;;;;9.20;1.00;;;;;;5054759;28;19917;-84
2021/12/18 15:26:16;;;;;;;;;;;9.20;1.00;;;;;;5054416;28;19920;-84
2021/12/18 15:28:41;;;;;;;;;;;9.20;1.00;;;;;;5056582;28;20003;-84